sensor_id;sensor_type;location;lat;lon;timestamp;pressure;altitude;pressure_sealevel;temperature;humidity
68075;BME280;54864;52.002;5.468;2023-04-01T00:00:39;98933.09;;;11.70;97.24
68075;BME280;54864;52.002;5.468;2023-04-01T00:01:40;98928.31;;;11.75;96.36
68075;BME280;54864;52.002;5.468;2023-04-01T00:02:41;98929.84;;;11.66;96.01
68075;BME280;54864;52.002;5.468;2023-04-01T00:03:42;98927.84;;;11.48;97.49
68075;BME280;54864;52.002;5.468;2023-04-01T00:04:44;98930.25;;;11.39;98.48
68075;BME280;54864;52.002;5.468;2023-04-01T00:05:45;98932.41;;;11.46;98.64
68075;BME280;54864;52.002;5.468;2023-04-01T00:06:47;98939.25;;;11.48;98.93
68075;BME280;54864;52.002;5.468;2023-04-01T00:07:49;98927.13;;;11.57;98.63
68075;BME280;54864;52.002;5.468;2023-04-01T00:08:51;98926.25;;;11.67;98.21
68075;BME280;54864;52.002;5.468;2023-04-01T00:09:53;98934.41;;;11.64;97.88
68075;BME280;54864;52.002;5.468;2023-04-01T00:10:54;98934.66;;;11.61;97.57
68075;BME280;54864;52.002;5.468;2023-04-01T00:11:57;98930.34;;;11.60;98.42
68075;BME280;54864;52.002;5.468;2023-04-01T00:12:57;98939.56;;;11.66;97.94
68075;BME280;54864;52.002;5.468;2023-04-01T00:13:59;98926.97;;;11.69;97.78
68075;BME280;54864;52.002;5.468;2023-04-01T00:15:00;98943.31;;;11.63;97.59
68075;BME280;54864;52.002;5.468;2023-04-01T00:16:02;98938.50;;;11.68;97.40
68075;BME280;54864;52.002;5.468;2023-04-01T00:17:04;98928.19;;;11.54;98.07
68075;BME280;54864;52.002;5.468;2023-04-01T00:18:06;98935.50;;;11.62;97.75
68075;BME280;54864;52.002;5.468;2023-04-01T00:19:06;98935.28;;;11.54;97.99
68075;BME280;54864;52.002;5.468;2023-04-01T00:20:09;98939.22;;;11.59;97.92
68075;BME280;54864;52.002;5.468;2023-04-01T00:21:10;98936.84;;;11.56;97.82
68075;BME280;54864;52.002;5.468;2023-04-01T00:22:11;98933.09;;;11.59;98.12
68075;BME280;54864;52.002;5.468;2023-04-01T00:23:12;98936.09;;;11.65;97.93
68075;BME280;54864;52.002;5.468;2023-04-01T00:24:16;98948.25;;;11.79;97.23
68075;BME280;54864;52.002;5.468;2023-04-01T00:25:18;98937.56;;;11.81;96.59
68075;BME280;54864;52.002;5.468;2023-04-01T00:26:19;98932.88;;;11.73;96.76
68075;BME280;54864;52.002;5.468;2023-04-01T00:27:21;98941.75;;;11.50;97.63
68075;BME280;54864;52.002;5.468;2023-04-01T00:28:22;98940.91;;;11.49;98.51
68075;BME280;54864;52.002;5.468;2023-04-01T00:29:24;98939.47;;;11.56;99.03
68075;BME280;54864;52.002;5.468;2023-04-01T00:30:24;98940.31;;;11.57;98.59
68075;BME280;54864;52.002;5.468;2023-04-01T00:31:26;98941.97;;;11.69;98.34
68075;BME280;54864;52.002;5.468;2023-04-01T00:32:27;98940.78;;;11.73;97.50
68075;BME280;54864;52.002;5.468;2023-04-01T00:33:29;98938.28;;;11.71;96.93
68075;BME280;54864;52.002;5.468;2023-04-01T00:34:30;98935.72;;;11.70;97.06
68075;BME280;54864;52.002;5.468;2023-04-01T00:35:32;98938.16;;;11.62;97.35
68075;BME280;54864;52.002;5.468;2023-04-01T00:36:33;98948.22;;;11.57;98.39
68075;BME280;54864;52.002;5.468;2023-04-01T00:37:37;98940.66;;;11.63;97.87
68075;BME280;54864;52.002;5.468;2023-04-01T00:38:40;98948.69;;;11.62;97.82
68075;BME280;54864;52.002;5.468;2023-04-01T00:39:43;98947.75;;;11.63;96.68
68075;BME280;54864;52.002;5.468;2023-04-01T00:40:45;98950.63;;;11.60;97.33
68075;BME280;54864;52.002;5.468;2023-04-01T00:41:47;98943.31;;;11.63;97.48
68075;BME280;54864;52.002;5.468;2023-04-01T00:42:48;98940.91;;;11.71;97.34
68075;BME280;54864;52.002;5.468;2023-04-01T00:43:51;98936.69;;;11.69;97.32
68075;BME280;54864;52.002;5.468;2023-04-01T00:44:53;98949.22;;;11.78;95.76
68075;BME280;54864;52.002;5.468;2023-04-01T00:45:55;98951.38;;;11.84;95.50
68075;BME280;54864;52.002;5.468;2023-04-01T00:46:56;98948.84;;;11.83;95.40
68075;BME280;54864;52.002;5.468;2023-04-01T00:48:02;98947.03;;;11.83;94.93
68075;BME280;54864;52.002;5.468;2023-04-01T00:49:05;98948.38;;;11.78;94.80
68075;BME280;54864;52.002;5.468;2023-04-01T00:50:07;98947.50;;;11.77;95.48
68075;BME280;54864;52.002;5.468;2023-04-01T00:51:10;98951.94;;;11.77;94.74
68075;BME280;54864;52.002;5.468;2023-04-01T00:52:15;98955.91;;;11.71;95.10
68075;BME280;54864;52.002;5.468;2023-04-01T00:53:19;98949.94;;;11.80;95.12
68075;BME280;54864;52.002;5.468;2023-04-01T00:54:22;98951.69;;;11.68;95.28
68075;BME280;54864;52.002;5.468;2023-04-01T00:55:26;98949.81;;;11.70;95.10
68075;BME280;54864;52.002;5.468;2023-04-01T00:56:32;98955.34;;;11.79;95.22
68075;BME280;54864;52.002;5.468;2023-04-01T00:57:35;98950.66;;;11.82;94.83
68075;BME280;54864;52.002;5.468;2023-04-01T00:58:39;98953.88;;;11.86;94.08
68075;BME280;54864;52.002;5.468;2023-04-01T00:59:43;98955.22;;;11.80;93.56
68075;BME280;54864;52.002;5.468;2023-04-01T01:00:46;98955.66;;;11.74;94.26
68075;BME280;54864;52.002;5.468;2023-04-01T01:01:48;98953.75;;;11.76;94.23
68075;BME280;54864;52.002;5.468;2023-04-01T01:02:51;98956.06;;;11.81;94.13
68075;BME280;54864;52.002;5.468;2023-04-01T01:03:51;98954.72;;;11.86;93.58
68075;BME280;54864;52.002;5.468;2023-04-01T01:04:53;98952.44;;;11.82;92.89
68075;BME280;54864;52.002;5.468;2023-04-01T01:06:10;98951.09;;;11.76;92.96
68075;BME280;54864;52.002;5.468;2023-04-01T01:07:20;98955.66;;;11.74;93.79
68075;BME280;54864;52.002;5.468;2023-04-01T01:08:27;98958.56;;;11.71;94.10
68075;BME280;54864;52.002;5.468;2023-04-01T01:09:38;98956.06;;;11.81;93.67
68075;BME280;54864;52.002;5.468;2023-04-01T01:10:43;98955.78;;;11.61;94.07
68075;BME280;54864;52.002;5.468;2023-04-01T01:11:54;98954.44;;;11.67;94.30
68075;BME280;54864;52.002;5.468;2023-04-01T01:13:04;98961.19;;;11.60;94.68
68075;BME280;54864;52.002;5.468;2023-04-01T01:14:22;98968.59;;;11.66;94.42
68075;BME280;54864;52.002;5.468;2023-04-01T01:15:27;98965.13;;;11.65;94.42
68075;BME280;54864;52.002;5.468;2023-04-01T01:16:36;98966.81;;;11.66;93.55
68075;BME280;54864;52.002;5.468;2023-04-01T01:17:53;98961.78;;;11.63;93.06
68075;BME280;54864;52.002;5.468;2023-04-01T01:19:03;98966.34;;;11.50;93.79
68075;BME280;54864;52.002;5.468;2023-04-01T01:21:56;98972.72;;;11.48;94.80
68075;BME280;54864;52.002;5.468;2023-04-01T01:23:15;98976.91;;;11.50;94.62
68075;BME280;54864;52.002;5.468;2023-04-01T01:24:40;98978.34;;;11.32;95.68
68075;BME280;54864;52.002;5.468;2023-04-01T01:25:48;98971.16;;;11.34;95.86
68075;BME280;54864;52.002;5.468;2023-04-01T01:27:03;98967.19;;;11.28;96.14
68075;BME280;54864;52.002;5.468;2023-04-01T01:28:19;98971.50;;;11.40;95.92
68075;BME280;54864;52.002;5.468;2023-04-01T01:29:45;98969.84;;;11.39;95.84
68075;BME280;54864;52.002;5.468;2023-04-01T01:30:57;98977.50;;;11.31;95.75
68075;BME280;54864;52.002;5.468;2023-04-01T01:32:06;98969.47;;;11.33;95.42
68075;BME280;54864;52.002;5.468;2023-04-01T01:33:33;98965.88;;;11.34;94.90
68075;BME280;54864;52.002;5.468;2023-04-01T01:34:43;98972.09;;;11.33;94.67
68075;BME280;54864;52.002;5.468;2023-04-01T01:35:50;98964.56;;;11.28;95.64
68075;BME280;54864;52.002;5.468;2023-04-01T01:36:57;98973.56;;;11.26;95.61
68075;BME280;54864;52.002;5.468;2023-04-01T01:38:01;98973.06;;;11.32;95.98
68075;BME280;54864;52.002;5.468;2023-04-01T01:39:05;98974.16;;;11.29;95.63
68075;BME280;54864;52.002;5.468;2023-04-01T01:40:10;98975.09;;;11.28;95.50
68075;BME280;54864;52.002;5.468;2023-04-01T01:41:15;98976.91;;;11.39;95.71
68075;BME280;54864;52.002;5.468;2023-04-01T01:42:19;98983.03;;;11.28;95.77
68075;BME280;54864;52.002;5.468;2023-04-01T01:43:22;98980.03;;;11.33;95.31
68075;BME280;54864;52.002;5.468;2023-04-01T01:44:25;98983.03;;;11.39;95.12
68075;BME280;54864;52.002;5.468;2023-04-01T01:45:28;98978.47;;;11.41;95.04
68075;BME280;54864;52.002;5.468;2023-04-01T01:46:32;98977.25;;;11.46;94.75
68075;BME280;54864;52.002;5.468;2023-04-01T01:47:34;98981.59;;;11.47;93.71
68075;BME280;54864;52.002;5.468;2023-04-01T01:48:37;98977.25;;;11.34;93.91
68075;BME280;54864;52.002;5.468;2023-04-01T01:49:40;98979.53;;;11.39;93.97
68075;BME280;54864;52.002;5.468;2023-04-01T01:50:44;98980.75;;;11.35;93.78
68075;BME280;54864;52.002;5.468;2023-04-01T01:51:47;98985.06;;;11.36;93.86
68075;BME280;54864;52.002;5.468;2023-04-01T01:52:49;98989.13;;;11.29;94.37
68075;BME280;54864;52.002;5.468;2023-04-01T01:53:50;98982.66;;;11.22;94.07
68075;BME280;54864;52.002;5.468;2023-04-01T01:54:53;98984.22;;;11.24;94.96
68075;BME280;54864;52.002;5.468;2023-04-01T01:55:53;98983.50;;;11.22;95.23
68075;BME280;54864;52.002;5.468;2023-04-01T01:57:01;98985.06;;;11.25;95.15
68075;BME280;54864;52.002;5.468;2023-04-01T01:58:08;98979.31;;;11.20;95.12
68075;BME280;54864;52.002;5.468;2023-04-01T01:59:13;98982.91;;;11.19;95.87
68075;BME280;54864;52.002;5.468;2023-04-01T02:00:17;98980.25;;;11.19;95.69
68075;BME280;54864;52.002;5.468;2023-04-01T02:01:21;98984.81;;;11.17;96.43
68075;BME280;54864;52.002;5.468;2023-04-01T02:02:26;98979.66;;;11.15;96.57
68075;BME280;54864;52.002;5.468;2023-04-01T02:03:30;98988.66;;;11.13;97.13
68075;BME280;54864;52.002;5.468;2023-04-01T02:04:34;98978.09;;;11.24;96.65
68075;BME280;54864;52.002;5.468;2023-04-01T02:05:36;98992.59;;;11.18;96.11
68075;BME280;54864;52.002;5.468;2023-04-01T02:06:40;98982.28;;;11.15;96.34
68075;BME280;54864;52.002;5.468;2023-04-01T02:07:46;98984.94;;;11.15;96.16
68075;BME280;54864;52.002;5.468;2023-04-01T02:08:51;98997.34;;;11.02;96.81
68075;BME280;54864;52.002;5.468;2023-04-01T02:09:54;98991.41;;;11.11;97.04
68075;BME280;54864;52.002;5.468;2023-04-01T02:10:59;98991.41;;;11.11;96.79
68075;BME280;54864;52.002;5.468;2023-04-01T02:12:03;98990.06;;;11.05;96.77
68075;BME280;54864;52.002;5.468;2023-04-01T02:13:09;98994.72;;;11.02;97.74
68075;BME280;54864;52.002;5.468;2023-04-01T02:14:15;98984.16;;;10.91;98.55
68075;BME280;54864;52.002;5.468;2023-04-01T02:15:18;98986.53;;;10.94;98.61
68075;BME280;54864;52.002;5.468;2023-04-01T02:16:24;98986.81;;;11.02;98.29
68075;BME280;54864;52.002;5.468;2023-04-01T02:17:30;98995.78;;;10.99;98.40
68075;BME280;54864;52.002;5.468;2023-04-01T02:18:33;98998.41;;;10.99;98.62
68075;BME280;54864;52.002;5.468;2023-04-01T02:19:39;98994.47;;;11.05;98.22
68075;BME280;54864;52.002;5.468;2023-04-01T02:20:41;98993.88;;;11.01;98.28
68075;BME280;54864;52.002;5.468;2023-04-01T02:21:45;98997.88;;;11.07;98.30
68075;BME280;54864;52.002;5.468;2023-04-01T02:22:50;99001.84;;;11.13;96.86
68075;BME280;54864;52.002;5.468;2023-04-01T02:23:53;98995.59;;;11.14;97.27
68075;BME280;54864;52.002;5.468;2023-04-01T02:25:00;98988.16;;;11.19;96.49
68075;BME280;54864;52.002;5.468;2023-04-01T02:26:05;98997.13;;;11.05;96.62
68075;BME280;54864;52.002;5.468;2023-04-01T02:27:09;99004.72;;;11.09;97.14
68075;BME280;54864;52.002;5.468;2023-04-01T02:28:11;98994.72;;;11.02;96.59
68075;BME280;54864;52.002;5.468;2023-04-01T02:29:14;98995.28;;;10.83;97.74
68075;BME280;54864;52.002;5.468;2023-04-01T02:30:17;98994.72;;;11.02;97.96
68075;BME280;54864;52.002;5.468;2023-04-01T02:31:18;98997.56;;;10.88;96.81
68075;BME280;54864;52.002;5.468;2023-04-01T02:32:20;98998.97;;;10.80;98.03
68075;BME280;54864;52.002;5.468;2023-04-01T02:33:21;99000.91;;;10.90;98.22
68075;BME280;54864;52.002;5.468;2023-04-01T02:34:23;98993.00;;;10.90;98.23
68075;BME280;54864;52.002;5.468;2023-04-01T02:35:25;99006.41;;;10.87;98.21
68075;BME280;54864;52.002;5.468;2023-04-01T02:36:27;99005.59;;;10.97;98.05
68075;BME280;54864;52.002;5.468;2023-04-01T02:37:28;99003.44;;;10.91;98.18
68075;BME280;54864;52.002;5.468;2023-04-01T02:38:31;99000.56;;;10.94;98.12
68075;BME280;54864;52.002;5.468;2023-04-01T02:39:32;99005.59;;;10.97;97.85
68075;BME280;54864;52.002;5.468;2023-04-01T02:40:48;99001.56;;;11.04;97.42
68075;BME280;54864;52.002;5.468;2023-04-01T02:41:49;99003.75;;;11.10;96.79
68075;BME280;54864;52.002;5.468;2023-04-01T02:42:51;99005.53;;;11.10;96.49
68075;BME280;54864;52.002;5.468;2023-04-01T02:43:52;99007.63;;;10.94;96.86
68075;BME280;54864;52.002;5.468;2023-04-01T02:44:53;99002.47;;;10.92;97.04
68075;BME280;54864;52.002;5.468;2023-04-01T02:45:54;99001.25;;;10.85;97.30
68075;BME280;54864;52.002;5.468;2023-04-01T02:46:56;99011.00;;;10.96;97.95
68075;BME280;54864;52.002;5.468;2023-04-01T02:47:56;99003.81;;;10.98;97.51
68075;BME280;54864;52.002;5.468;2023-04-01T02:48:58;98999.75;;;11.05;97.06
68075;BME280;54864;52.002;5.468;2023-04-01T02:49:59;99005.53;;;11.10;96.58
68075;BME280;54864;52.002;5.468;2023-04-01T02:51:01;99004.47;;;11.13;96.83
68075;BME280;54864;52.002;5.468;2023-04-01T02:52:01;99008.56;;;11.17;96.75
68075;BME280;54864;52.002;5.468;2023-04-01T02:53:03;99007.72;;;11.16;96.23
68075;BME280;54864;52.002;5.468;2023-04-01T02:54:07;99003.16;;;11.18;96.05
68075;BME280;54864;52.002;5.468;2023-04-01T02:55:09;99006.28;;;11.23;95.96
68075;BME280;54864;52.002;5.468;2023-04-01T02:56:10;99003.41;;;11.26;95.12
68075;BME280;54864;52.002;5.468;2023-04-01T02:57:12;99008.22;;;11.32;94.65
68075;BME280;54864;52.002;5.468;2023-04-01T02:58:12;99007.38;;;11.32;94.97
68075;BME280;54864;52.002;5.468;2023-04-01T02:59:14;99013.84;;;11.28;94.56
68075;BME280;54864;52.002;5.468;2023-04-01T03:00:16;98998.38;;;11.23;94.78
68075;BME280;54864;52.002;5.468;2023-04-01T03:01:18;99006.03;;;11.15;95.36
68075;BME280;54864;52.002;5.468;2023-04-01T03:02:18;99005.78;;;11.18;95.49
68075;BME280;54864;52.002;5.468;2023-04-01T03:03:20;99014.28;;;11.10;95.69
68075;BME280;54864;52.002;5.468;2023-04-01T03:04:21;99014.19;;;11.12;96.07
68075;BME280;54864;52.002;5.468;2023-04-01T03:05:23;99008.06;;;11.11;96.00
68075;BME280;54864;52.002;5.468;2023-04-01T03:06:23;99006.75;;;11.17;95.74
68075;BME280;54864;52.002;5.468;2023-04-01T03:07:25;99016.94;;;11.22;94.94
68075;BME280;54864;52.002;5.468;2023-04-01T03:08:26;99008.56;;;11.17;94.39
68075;BME280;54864;52.002;5.468;2023-04-01T03:09:29;99018.88;;;11.20;94.95
68075;BME280;54864;52.002;5.468;2023-04-01T03:10:30;99014.91;;;11.14;94.84
68075;BME280;54864;52.002;5.468;2023-04-01T03:11:32;99016.59;;;11.15;94.80
68075;BME280;54864;52.002;5.468;2023-04-01T03:12:32;99018.91;;;10.96;95.72
68075;BME280;54864;52.002;5.468;2023-04-01T03:13:34;99014.38;;;10.98;96.42
68075;BME280;54864;52.002;5.468;2023-04-01T03:14:34;99022.88;;;11.01;96.39
68075;BME280;54864;52.002;5.468;2023-04-01T03:15:36;99012.94;;;11.05;96.23
68075;BME280;54864;52.002;5.468;2023-04-01T03:16:37;99017.16;;;11.07;96.26
68075;BME280;54864;52.002;5.468;2023-04-01T03:17:39;99013.47;;;11.10;96.42
68075;BME280;54864;52.002;5.468;2023-04-01T03:18:41;99018.63;;;11.11;96.14
68075;BME280;54864;52.002;5.468;2023-04-01T03:19:42;99021.38;;;11.10;95.79
68075;BME280;54864;52.002;5.468;2023-04-01T03:20:43;99018.84;;;11.08;95.40
68075;BME280;54864;52.002;5.468;2023-04-01T03:21:44;99021.97;;;11.14;95.76
68075;BME280;54864;52.002;5.468;2023-04-01T03:22:45;99028.31;;;11.11;95.55
68075;BME280;54864;52.002;5.468;2023-04-01T03:23:47;99025.69;;;11.11;95.87
68075;BME280;54864;52.002;5.468;2023-04-01T03:24:50;99020.75;;;11.06;95.36
68075;BME280;54864;52.002;5.468;2023-04-01T03:25:50;99023.09;;;10.98;95.99
68075;BME280;54864;52.002;5.468;2023-04-01T03:26:52;99025.63;;;11.00;96.16
68075;BME280;54864;52.002;5.468;2023-04-01T03:27:53;99031.13;;;10.97;96.53
68075;BME280;54864;52.002;5.468;2023-04-01T03:28:54;99032.47;;;11.02;96.53
68075;BME280;54864;52.002;5.468;2023-04-01T03:29:55;99037.75;;;11.02;96.16
68075;BME280;54864;52.002;5.468;2023-04-01T03:30:57;99032.66;;;10.88;96.70
68075;BME280;54864;52.002;5.468;2023-04-01T03:31:58;99031.84;;;10.88;97.13
68075;BME280;54864;52.002;5.468;2023-04-01T03:32:59;99035.66;;;10.84;97.83
68075;BME280;54864;52.002;5.468;2023-04-01T03:34:00;99042.16;;;10.91;97.10
68075;BME280;54864;52.002;5.468;2023-04-01T03:35:02;99034.94;;;10.82;97.36
68075;BME280;54864;52.002;5.468;2023-04-01T03:36:04;99034.69;;;10.85;97.79
68075;BME280;54864;52.002;5.468;2023-04-01T03:37:06;99032.66;;;10.88;97.87
68075;BME280;54864;52.002;5.468;2023-04-01T03:38:08;99041.28;;;10.79;98.22
68075;BME280;54864;52.002;5.468;2023-04-01T03:39:08;99042.25;;;10.89;98.53
68075;BME280;54864;52.002;5.468;2023-04-01T03:40:11;99042.63;;;10.96;98.19
68075;BME280;54864;52.002;5.468;2023-04-01T03:41:12;99045.84;;;10.88;97.83
68075;BME280;54864;52.002;5.468;2023-04-01T03:42:14;99039.16;;;10.95;97.03
68075;BME280;54864;52.002;5.468;2023-04-01T03:43:15;99042.88;;;10.93;96.96
68075;BME280;54864;52.002;5.468;2023-04-01T03:44:17;99035.34;;;10.99;97.32
68075;BME280;54864;52.002;5.468;2023-04-01T03:45:18;99033.78;;;10.97;96.45
68075;BME280;54864;52.002;5.468;2023-04-01T03:46:20;99035.22;;;11.01;96.90
68075;BME280;54864;52.002;5.468;2023-04-01T03:47:21;99031.72;;;10.89;96.88
68075;BME280;54864;52.002;5.468;2023-04-01T03:48:22;99042.38;;;10.88;97.45
68075;BME280;54864;52.002;5.468;2023-04-01T03:49:23;99038.75;;;10.77;97.83
68075;BME280;54864;52.002;5.468;2023-04-01T03:50:25;99043.22;;;10.88;98.20
68075;BME280;54864;52.002;5.468;2023-04-01T03:51:26;99041.53;;;10.87;97.84
68075;BME280;54864;52.002;5.468;2023-04-01T03:52:28;99036.75;;;10.92;97.87
68075;BME280;54864;52.002;5.468;2023-04-01T03:53:29;99043.13;;;11.01;97.56
68075;BME280;54864;52.002;5.468;2023-04-01T03:54:31;99043.59;;;10.95;97.10
68075;BME280;54864;52.002;5.468;2023-04-01T03:55:35;99048.16;;;10.93;97.36
68075;BME280;54864;52.002;5.468;2023-04-01T03:56:37;99039.03;;;10.97;97.55
68075;BME280;54864;52.002;5.468;2023-04-01T03:57:38;99048.09;;;11.05;97.41
68075;BME280;54864;52.002;5.468;2023-04-01T03:58:39;99051.75;;;11.03;97.22
68075;BME280;54864;52.002;5.468;2023-04-01T03:59:40;99049.09;;;10.92;97.37
68075;BME280;54864;52.002;5.468;2023-04-01T04:00:42;99046.56;;;10.90;97.62
68075;BME280;54864;52.002;5.468;2023-04-01T04:01:42;99055.56;;;10.88;98.26
68075;BME280;54864;52.002;5.468;2023-04-01T04:02:44;99051.63;;;10.93;98.33
68075;BME280;54864;52.002;5.468;2023-04-01T04:03:45;99053.03;;;10.86;98.99
68075;BME280;54864;52.002;5.468;2023-04-01T04:04:47;99047.56;;;11.00;98.30
68075;BME280;54864;52.002;5.468;2023-04-01T04:05:48;99048.09;;;11.05;97.10
68075;BME280;54864;52.002;5.468;2023-04-01T04:06:50;99047.34;;;11.03;97.52
68075;BME280;54864;52.002;5.468;2023-04-01T04:07:52;99055.13;;;11.05;97.24
68075;BME280;54864;52.002;5.468;2023-04-01T04:08:53;99055.03;;;11.06;97.55
68075;BME280;54864;52.002;5.468;2023-04-01T04:09:54;99056.44;;;10.99;97.17
68075;BME280;54864;52.002;5.468;2023-04-01T04:10:57;99058.72;;;11.04;97.71
68075;BME280;54864;52.002;5.468;2023-04-01T04:11:58;99059.78;;;11.01;97.91
68075;BME280;54864;52.002;5.468;2023-04-01T04:13:00;99056.94;;;11.04;97.73
68075;BME280;54864;52.002;5.468;2023-04-01T04:14:01;99063.34;;;11.13;97.42
68075;BME280;54864;52.002;5.468;2023-04-01T04:15:03;99060.69;;;11.13;96.91
68075;BME280;54864;52.002;5.468;2023-04-01T04:16:05;99058.72;;;11.04;97.05
68075;BME280;54864;52.002;5.468;2023-04-01T04:17:06;99056.38;;;11.12;97.16
68075;BME280;54864;52.002;5.468;2023-04-01T04:18:08;99069.44;;;11.14;96.71
68075;BME280;54864;52.002;5.468;2023-04-01T04:19:10;99063.22;;;11.15;96.34
68075;BME280;54864;52.002;5.468;2023-04-01T04:20:10;99072.44;;;11.09;96.37
68075;BME280;54864;52.002;5.468;2023-04-01T04:21:13;99065.69;;;11.05;96.74
68075;BME280;54864;52.002;5.468;2023-04-01T04:22:15;99075.22;;;10.95;98.06
68075;BME280;54864;52.002;5.468;2023-04-01T04:23:16;99076.22;;;11.05;98.09
68075;BME280;54864;52.002;5.468;2023-04-01T04:24:17;99075.34;;;11.17;97.42
68075;BME280;54864;52.002;5.468;2023-04-01T04:25:18;99073.06;;;11.24;96.76
68075;BME280;54864;52.002;5.468;2023-04-01T04:26:21;99070.69;;;11.32;96.25
68075;BME280;54864;52.002;5.468;2023-04-01T04:27:22;99076.31;;;11.27;95.91
68075;BME280;54864;52.002;5.468;2023-04-01T04:28:24;99073.56;;;11.29;95.86
68075;BME280;54864;52.002;5.468;2023-04-01T04:29:25;99077.63;;;11.33;95.88
68075;BME280;54864;52.002;5.468;2023-04-01T04:30:26;99078.72;;;11.41;95.59
68075;BME280;54864;52.002;5.468;2023-04-01T04:31:27;99078.47;;;11.33;95.05
68075;BME280;54864;52.002;5.468;2023-04-01T04:32:30;99082.91;;;11.33;95.58
68075;BME280;54864;52.002;5.468;2023-04-01T04:33:30;99083.16;;;11.30;95.66
68075;BME280;54864;52.002;5.468;2023-04-01T04:34:32;99081.00;;;11.35;95.19
68075;BME280;54864;52.002;5.468;2023-04-01T04:35:33;99085.44;;;11.34;95.71
68075;BME280;54864;52.002;5.468;2023-04-01T04:36:35;99084.13;;;11.40;95.40
68075;BME280;54864;52.002;5.468;2023-04-01T04:37:35;99086.78;;;11.40;95.26
68075;BME280;54864;52.002;5.468;2023-04-01T04:38:37;99081.97;;;11.45;95.26
68075;BME280;54864;52.002;5.468;2023-04-01T04:39:37;99082.56;;;11.49;95.18
68075;BME280;54864;52.002;5.468;2023-04-01T04:40:40;99086.06;;;11.49;94.61
68075;BME280;54864;52.002;5.468;2023-04-01T04:41:42;99087.34;;;11.32;94.85
68075;BME280;54864;52.002;5.468;2023-04-01T04:42:44;99094.53;;;11.30;95.70
68075;BME280;54864;52.002;5.468;2023-04-01T04:43:49;99091.06;;;11.30;96.19
68075;BME280;54864;52.002;5.468;2023-04-01T04:44:51;99091.75;;;11.21;96.73
68075;BME280;54864;52.002;5.468;2023-04-01T04:45:52;99098.75;;;11.33;96.26
68075;BME280;54864;52.002;5.468;2023-04-01T04:46:53;99100.81;;;11.40;95.88
68075;BME280;54864;52.002;5.468;2023-04-01T04:47:54;99096.72;;;11.48;95.53
68075;BME280;54864;52.002;5.468;2023-04-01T04:48:56;99098.66;;;11.46;95.79
68075;BME280;54864;52.002;5.468;2023-04-01T04:49:56;99097.31;;;11.29;96.15
68075;BME280;54864;52.002;5.468;2023-04-01T04:50:58;99097.06;;;11.32;96.76
68075;BME280;54864;52.002;5.468;2023-04-01T04:51:58;99101.38;;;11.33;96.61
68075;BME280;54864;52.002;5.468;2023-04-01T04:53:00;99105.25;;;11.40;96.23
68075;BME280;54864;52.002;5.468;2023-04-01T04:54:01;99107.63;;;11.43;96.18
68075;BME280;54864;52.002;5.468;2023-04-01T04:55:03;99102.13;;;11.46;96.08
68075;BME280;54864;52.002;5.468;2023-04-01T04:56:04;99109.31;;;11.44;96.13
68075;BME280;54864;52.002;5.468;2023-04-01T04:57:07;99106.31;;;11.37;96.19
68075;BME280;54864;52.002;5.468;2023-04-01T04:58:08;99115.53;;;11.32;96.94
68075;BME280;54864;52.002;5.468;2023-04-01T04:59:10;99114.00;;;11.40;97.22
68075;BME280;54864;52.002;5.468;2023-04-01T05:00:12;99119.50;;;11.37;96.70
68075;BME280;54864;52.002;5.468;2023-04-01T05:01:15;99118.53;;;11.38;97.01
68075;BME280;54864;52.002;5.468;2023-04-01T05:02:16;99122.28;;;11.47;96.48
68075;BME280;54864;52.002;5.468;2023-04-01T05:03:18;99122.66;;;11.54;96.17
68075;BME280;54864;52.002;5.468;2023-04-01T05:04:19;99121.91;;;11.40;96.17
68075;BME280;54864;52.002;5.468;2023-04-01T05:05:20;99126.13;;;11.43;96.89
68075;BME280;54864;52.002;5.468;2023-04-01T05:06:21;99123.81;;;11.38;97.10
68075;BME280;54864;52.002;5.468;2023-04-01T05:07:22;99133.56;;;11.49;96.29
68075;BME280;54864;52.002;5.468;2023-04-01T05:08:23;99132.81;;;11.36;96.71
68075;BME280;54864;52.002;5.468;2023-04-01T05:09:25;99130.19;;;11.47;96.92
68075;BME280;54864;52.002;5.468;2023-04-01T05:10:25;99139.41;;;11.41;96.95
68075;BME280;54864;52.002;5.468;2023-04-01T05:11:27;99133.31;;;11.52;96.68
68075;BME280;54864;52.002;5.468;2023-04-01T05:12:29;99126.97;;;11.55;95.95
68075;BME280;54864;52.002;5.468;2023-04-01T05:13:32;99143.31;;;11.60;96.08
68075;BME280;54864;52.002;5.468;2023-04-01T05:14:34;99140.78;;;11.69;95.46
68075;BME280;54864;52.002;5.468;2023-04-01T05:15:35;99139.94;;;11.69;95.24
68075;BME280;54864;52.002;5.468;2023-04-01T05:16:37;99144.50;;;11.56;95.64
68075;BME280;54864;52.002;5.468;2023-04-01T05:17:38;99148.19;;;11.42;96.37
68075;BME280;54864;52.002;5.468;2023-04-01T05:18:39;99146.13;;;11.34;96.86
68075;BME280;54864;52.002;5.468;2023-04-01T05:19:40;99158.00;;;11.40;97.67
68075;BME280;54864;52.002;5.468;2023-04-01T05:20:46;99158.84;;;11.40;97.44
68075;BME280;54864;52.002;5.468;2023-04-01T05:21:48;99156.09;;;11.42;97.54
68075;BME280;54864;52.002;5.468;2023-04-01T05:22:49;99156.69;;;11.46;97.37
68075;BME280;54864;52.002;5.468;2023-04-01T05:23:50;99158.72;;;11.42;97.17
68075;BME280;54864;52.002;5.468;2023-04-01T05:24:52;99161.00;;;11.35;97.90
68075;BME280;54864;52.002;5.468;2023-04-01T05:25:52;99166.16;;;11.37;97.58
68075;BME280;54864;52.002;5.468;2023-04-01T05:26:54;99156.53;;;11.25;98.38
68075;BME280;54864;52.002;5.468;2023-04-01T05:27:57;99169.38;;;11.29;98.56
68075;BME280;54864;52.002;5.468;2023-04-01T05:28:59;99169.38;;;11.29;98.81
68075;BME280;54864;52.002;5.468;2023-04-01T05:30:00;99170.09;;;11.31;98.76
68075;BME280;54864;52.002;5.468;2023-04-01T05:31:03;99170.94;;;11.32;98.57
68075;BME280;54864;52.002;5.468;2023-04-01T05:32:04;99173.97;;;11.38;98.38
68075;BME280;54864;52.002;5.468;2023-04-01T05:33:05;99172.34;;;11.25;99.01
68075;BME280;54864;52.002;5.468;2023-04-01T05:34:06;99170.91;;;11.21;99.40
68075;BME280;54864;52.002;5.468;2023-04-01T05:35:08;99175.22;;;11.22;99.71